• Join FlightAware (Why Join?)
  • Login
  • US Flag 
05:12AM EDT


 

Airport Tracker/Info


-or-


 

Live Flight TrackerFlight Track Log ✈ DAL1550 ✈ 19-Apr-2013 ✈ KLAS - KMSP

Flight Track Log - Related Links

Times and Time Zones

All times are in EDT time to prevent confusion due to time zone crossing. See the DAL1550 flight status page for this flight to view local times or setup timezone preferences in your user account.

Time Position Orientation Groundspeed Altitude Reporting Facility
EDT Latitude Longitude Course Direction KTS MPH feet Rate Location/Type
03:01PM 36.0753 -115.1844 39° Northeast 197 227 3,200  Level Los Angeles Center
03:03PM 36.1011 -115.2931 286° West 244 281 7,000 2,460 Climbing Los Angeles Center
03:04PM 36.1833 -114.8989 90° East  Level FlightAware Approximate
03:04PM 36.1783 -115.2544 22° Northeast 262 302 10,000  Level Los Angeles Center
03:05PM 36.2141 -114.7526 39° Northeast  Level FlightAware Approximate
03:05PM 36.1950 -115.1556 78° East 310 357 11,100  Level Los Angeles Center
03:06PM 36.3124 -114.6543 39° Northeast  Level FlightAware Approximate
03:06PM 36.1961 -115.0339 89° East 349 402 12,500  Level Los Angeles Center
03:07PM 36.1975 -114.8950 89° East 394 453 13,900 1,260 Climbing Los Angeles Center
03:08PM 36.2272 -114.7567 75° East 430 495 15,200 1,740 Climbing Los Angeles Center
03:09PM 36.3383 -114.6517 37° Northeast 422 486 17,600 1,800 Climbing Los Angeles Center
03:10PM 36.4297 -114.5619 38° Northeast 420 483 19,000 1,200 Climbing Los Angeles Center
03:11PM 36.5258 -114.4711 37° Northeast 431 496 20,100 960 Climbing Los Angeles Center
03:12PM 36.6306 -114.3875 33° Northeast 445 512 21,100 960 Climbing Los Angeles Center
03:13PM 36.7383 -114.3028 32° Northeast 456 525 22,200 1,200 Climbing Los Angeles Center
03:14PM 36.8708 -114.2019 31° Northeast 465 535 23,700 1,500 Climbing Los Angeles Center
03:15PM 36.9797 -114.1169 32° Northeast 462 532 25,300 1,200 Climbing Los Angeles Center
03:16PM 37.0869 -114.0336 32° Northeast 456 525 26,300 1,080 Climbing Los Angeles Center
03:17PM 37.1931 -113.9475 33° Northeast 456 525 27,600 1,260 Climbing Los Angeles Center
03:18PM 37.3067 -113.8586 32° Northeast 450 518 29,000 1,200 Climbing Los Angeles Center
03:19PM 37.4097 -113.7767 32° Northeast 442 509 30,200 960 Climbing Los Angeles Center
03:20PM 37.5133 -113.6947 32° Northeast 439 505 31,000 360 Climbing Los Angeles Center
03:21PM 37.6156 -113.6156 32° Northeast 433 498 31,000  Level Los Angeles Center
03:22PM 37.7364 -113.5144 33° Northeast 434 499 31,000  Level Salt Lake Center
03:24PM 37.8136 -113.3858 53° Northeast 452 520 31,000  Level Salt Lake Center
03:25PM 37.8825 -113.2469 58° Northeast 460 529 31,000  Level Salt Lake Center
03:26PM 37.9500 -113.1075 58° Northeast 461 531 31,000  Level Salt Lake Center
03:27PM 38.0192 -112.9672 58° Northeast 464 534 31,000  Level Salt Lake Center
03:28PM 38.1003 -112.7978 59° Northeast 466 536 31,000  Level Salt Lake Center
03:29PM 38.1681 -112.6569 58° Northeast 465 535 31,000  Level Salt Lake Center
03:30PM 38.2344 -112.5150 59° Northeast 466 536 31,000  Level Salt Lake Center
03:31PM 38.3008 -112.3750 59° Northeast 463 533 31,000  Level Salt Lake Center
03:32PM 38.3678 -112.2314 59° Northeast 470 541 31,000  Level Salt Lake Center
03:33PM 38.4342 -112.0914 59° Northeast 464 534 31,000  Level Salt Lake Center
03:34PM 38.5006 -111.9500 59° Northeast 464 534 31,000  Level Salt Lake Center
03:35PM 38.5669 -111.8069 59° Northeast 467 537 31,000  Level Salt Lake Center
03:36PM 38.6456 -111.6369 59° Northeast 465 535 31,000  Level Salt Lake Center
03:37PM 38.7114 -111.4947 59° Northeast 465 535 31,000  Level Salt Lake Center
03:38PM 38.7778 -111.3528 59° Northeast 464 534 31,000  Level Salt Lake Center
03:39PM 38.8436 -111.2078 60° Northeast 470 541 31,000  Level Salt Lake Center
03:40PM 38.9094 -111.0647 59° Northeast 468 539 31,000  Level Salt Lake Center
03:41PM 38.9747 -110.9164 60° Northeast 469 540 31,000  Level Salt Lake Center
03:42PM 39.0472 -110.7544 60° Northeast 469 540 31,000  Level Salt Lake Center
03:43PM 39.1158 -110.6011 60° Northeast 466 536 31,000  Level Salt Lake Center
03:44PM 39.1386 -110.5431 63° Northeast 471 542 31,000  Level Denver Center
03:45PM 39.2122 -110.3808 60° Northeast 471 542 31,000  Level Denver Center
03:45PM 39.2439 -110.3128 59° Northeast 470 541 31,000  Level Salt Lake Center
03:46PM 39.3156 -110.1486 61° Northeast 471 542 31,000  Level Salt Lake Center
03:47PM 39.3775 -110.0069 60° Northeast 472 543 31,000  Level Salt Lake Center
03:48PM 39.4078 -109.9350 61° Northeast 473 544 31,000  Level Denver Center
03:48PM 39.4500 -109.8422 59° Northeast 471 542 31,000  Level Salt Lake Center
03:49PM 39.4803 -109.7697 62° Northeast 473 544 31,000  Level Denver Center
03:50PM 39.5414 -109.6269 61° Northeast 473 544 31,000  Level Denver Center
03:50PM 39.5731 -109.5578 59° Northeast 471 542 31,000  Level Salt Lake Center
03:51PM 39.6447 -109.3889 61° Northeast 476 548 31,000  Level Salt Lake Center
03:52PM 39.7067 -109.2456 61° Northeast 476 548 31,000  Level Salt Lake Center
03:53PM 39.7789 -109.0789 61° Northeast 471 542 31,000  Level Salt Lake Center
03:54PM 39.8089 -109.0053 62° Northeast 470 541 31,000  Level Denver Center
03:55PM 39.8689 -108.8606 62° Northeast 468 539 31,000  Level Denver Center
03:56PM 39.9397 -108.6928 61° Northeast 467 537 31,000  Level Denver Center
03:57PM 39.9997 -108.5486 61° Northeast 468 539 31,000  Level Denver Center
03:58PM 40.0692 -108.3819 61° Northeast 466 536 31,000  Level Denver Center
03:59PM 40.1286 -108.2386 61° Northeast 468 539 31,000  Level Denver Center
04:00PM 40.2067 -108.0464 62° Northeast 467 537 31,000  Level Denver Center
04:01PM 40.2656 -107.9039 62° Northeast 465 535 31,000  Level Denver Center
04:02PM 40.3344 -107.7375 61° Northeast 464 534 31,000  Level Denver Center
04:03PM 40.3925 -107.5942 62° Northeast 464 534 31,000  Level Denver Center
04:04PM 40.4606 -107.4281 62° Northeast 463 533 31,000  Level Denver Center
04:05PM 40.5186 -107.2828 62° Northeast 466 536 31,000  Level Denver Center
04:07PM 40.5844 -107.1175 62° Northeast 469 540 31,000  Level Denver Center
04:08PM 40.6461 -106.9639 62° Northeast 472 543 31,000  Level Denver Center
04:09PM 40.7064 -106.8119 62° Northeast 468 539 31,000  Level Denver Center
04:10PM 40.7686 -106.6519 63° Northeast 473 544 31,000  Level Denver Center
04:11PM 40.8236 -106.5056 64° Northeast 467 537 31,000  Level Denver Center
04:12PM 40.8906 -106.3356 62° Northeast 468 539 31,000  Level Denver Center
04:13PM 40.9478 -106.1914 62° Northeast 464 534 31,000  Level Denver Center
04:14PM 41.0072 -106.0342 63° Northeast 465 535 31,000  Level Denver Center
04:15PM 41.0753 -105.8556 63° Northeast 470 541 31,000  Level Denver Center
04:16PM 41.1314 -105.7100 63° Northeast 465 535 31,000  Level Denver Center
04:17PM 41.1964 -105.5375 63° Northeast 466 536 31,000  Level Denver Center
04:18PM 41.2506 -105.3900 64° Northeast 466 536 31,000  Level Denver Center
04:19PM 41.3133 -105.2189 64° Northeast 463 533 31,000  Level Denver Center
04:20PM 41.3678 -105.0719 64° Northeast 463 533 31,000  Level Denver Center
04:21PM 41.4308 -104.8983 64° Northeast 466 536 31,000  Level Denver Center
04:22PM 41.4858 -104.7528 63° Northeast 462 532 31,000  Level Denver Center
04:23PM 41.5397 -104.6044 64° Northeast 464 534 31,000  Level Denver Center
04:24PM 41.6019 -104.4314 64° Northeast 464 534 31,000  Level Denver Center
04:25PM 41.6556 -104.2833 64° Northeast 463 533 31,000  Level Denver Center
04:26PM 41.7178 -104.1103 64° Northeast 466 536 31,000  Level Denver Center
04:27PM 41.7708 -103.9625 64° Northeast 463 533 31,000  Level Denver Center
04:28PM 41.8325 -103.7872 65° Northeast 467 537 31,000  Level Denver Center
04:29PM 41.8858 -103.6375 64° Northeast 468 539 31,000  Level Denver Center
04:30PM 41.9475 -103.4636 64° Northeast 463 533 31,000  Level Denver Center
04:31PM 42.0008 -103.3136 64° Northeast 466 536 31,000  Level Denver Center
04:32PM 42.0619 -103.1381 65° Northeast 466 536 31,000  Level Denver Center
04:33PM 42.1142 -102.9892 65° Northeast 463 533 31,000  Level Denver Center
04:34PM 42.1756 -102.8125 65° Northeast 467 537 31,000  Level Denver Center
04:35PM 42.2269 -102.6614 65° Northeast 466 536 31,000  Level Denver Center
04:36PM 42.2878 -102.4844 65° Northeast 466 536 31,000  Level Denver Center
04:38PM 42.3392 -102.3333 65° Northeast 465 535 31,000  Level Denver Center
04:39PM 42.3983 -102.1569 66° East 463 533 31,000  Level Denver Center
04:40PM 42.4492 -102.0058 65° Northeast 462 532 31,000  Level Denver Center
04:41PM 42.5089 -101.8289 65° Northeast 462 532 31,000  Level Denver Center
04:42PM 42.5503 -101.7003 66° East 461 531 31,000  Level Denver Center
04:43PM 42.6175 -101.4967 66° East 464 534 31,000  Level Denver Center
04:44PM 42.6681 -101.3419 66° East 467 537 31,000  Level Denver Center
04:45PM 42.7186 -101.1892 66° East 464 534 31,000  Level Denver Center
04:46PM 42.7725 -101.0217 66° East 461 531 31,000  Level Denver Center
04:47PM 42.8239 -100.8594 67° East 465 535 31,000  Level Denver Center
04:48PM 42.8744 -100.6969 67° East 466 536 31,000  Level Denver Center
04:49PM 42.9361 -100.5053 66° East 463 533 31,000  Level Denver Center
04:49PM 42.9467 -100.4728 66° East 464 534 31,000  Level Minneapolis Center
04:50PM 42.9872 -100.3442 67° East 464 534 31,000  Level Denver Center
04:51PM 43.0369 -100.1850 67° East 459 528 31,000  Level Denver Center
04:52PM 43.0764 -100.0564 67° East 459 528 31,000  Level Denver Center
04:52PM 43.0967 -99.9922 67° East 460 529 31,000  Level Minneapolis Center
04:53PM 43.1469 -99.8331 67° East 459 528 31,000  Level Minneapolis Center
04:54PM 43.2053 -99.6394 67° East 459 528 31,000  Level Minneapolis Center
04:55PM 43.2533 -99.4778 68° East 459 528 31,000  Level Minneapolis Center
04:56PM 43.3028 -99.3164 67° East 460 529 31,000  Level Minneapolis Center
04:57PM 43.3503 -99.1553 68° East 458 527 31,000  Level Minneapolis Center
04:58PM 43.4047 -98.9736 68° East 461 531 31,000  Level Minneapolis Center
04:59PM 43.4578 -98.7981 67° East 461 531 31,000  Level Minneapolis Center
05:01PM 43.5064 -98.6369 67° East 459 528 31,000  Level Minneapolis Center
05:02PM 43.5519 -98.4844 68° East 464 534 31,000  Level Minneapolis Center
05:03PM 43.6081 -98.2892 68° East 461 531 31,000  Level Minneapolis Center
05:04PM 43.6550 -98.1272 68° East 457 526 31,000  Level Minneapolis Center
05:05PM 43.7014 -97.9650 68° East 455 524 31,000  Level Minneapolis Center
05:06PM 43.7386 -97.8358 68° East 456 525 31,000  Level Minneapolis Center
05:07PM 43.7944 -97.6397 68° East 457 526 31,000  Level Minneapolis Center
05:08PM 43.8392 -97.4792 69° East 450 518 31,000  Level Minneapolis Center
05:09PM 43.8942 -97.2856 68° East 451 519 31,000  Level Minneapolis Center
05:10PM 43.9386 -97.1228 69° East 452 520 31,000  Level Minneapolis Center
05:11PM 43.9842 -96.9583 69° East 457 526 31,000  Level Minneapolis Center
05:12PM 44.0289 -96.7947 69° East 455 524 31,000  Level Minneapolis Center
05:13PM 44.0736 -96.6306 69° East 455 524 31,000  Level Minneapolis Center
05:14PM 44.1178 -96.4672 69° East 453 521 31,000  Level Minneapolis Center
05:15PM 44.1625 -96.3036 69° East 453 521 31,000  Level Minneapolis Center
05:16PM 44.2106 -96.1275 69° East 447 514 31,000  Level Minneapolis Center
05:17PM 44.2617 -95.9333 70° East 446 513 31,000  Level Minneapolis Center
05:18PM 44.3047 -95.7692 70° East 450 518 31,000  Level Minneapolis Center
05:19PM 44.3475 -95.6044 70° East 453 521 31,000 -120 Level Minneapolis Center
05:20PM 44.3900 -95.4372 70° East 457 526 30,800 -780 Descending Minneapolis Center
05:21PM 44.4325 -95.2692 70° East 459 528 29,500 -1,860 Descending Minneapolis Center
05:22PM 44.4750 -95.0994 71° East 463 533 27,000 -2,760 Descending Minneapolis Center
05:23PM 44.5167 -94.9306 71° East 461 531 23,800 -3,240 Descending Minneapolis Center
05:24PM 44.5608 -94.7336 72° East 447 514 20,400 -2,880 Descending Minneapolis Center
05:25PM 44.5978 -94.5767 72° East 427 491 17,900 -2,640 Descending Minneapolis Center
05:26PM 44.6264 -94.4808 67° East 403 464 15,900 -3,000 Descending FAA TRACON SMA TRACON (SMA)
05:26PM 44.6383 -94.4242 73° East 395 455 14,900 -2,820 Descending FAA TRACON SMA TRACON (SMA)
05:27PM 44.6478 -94.3794 73° East 389 448 14,100 -2,400 Descending FAA TRACON SMA TRACON (SMA)
05:27PM 44.6572 -94.3353 73° East 384 442 13,300 -2,700 Descending FAA TRACON SMA TRACON (SMA)
05:27PM 44.6697 -94.2814 72° East 378 435 12,300 -2,700 Descending FAA TRACON SMA TRACON (SMA)
05:28PM 44.6789 -94.2381 73° East 375 432 11,500 -1,800 Descending FAA TRACON SMA TRACON (SMA)
05:28PM 44.6878 -94.1958 73° East 370 426 11,100 -780 Descending FAA TRACON SMA TRACON (SMA)
05:28PM 44.6978 -94.1539 71° East 367 422 11,000 -180 Descending FAA TRACON SMA TRACON (SMA)
05:29PM 44.7100 -94.1006 72° East 370 426 11,000  Level FAA TRACON SMA TRACON (SMA)
05:29PM 44.7186 -94.0581 74° East 369 425 11,000  Level FAA TRACON SMA TRACON (SMA)
05:29PM 44.7275 -94.0153 74° East 370 426 11,000  Level FAA TRACON SMA TRACON (SMA)
05:30PM 44.7403 -93.9625 71° East 369 425 11,000  Level FAA TRACON SMA TRACON (SMA)
05:30PM 44.7606 -93.8797 71° East 363 418 11,000  Level FAA TRACON SMA TRACON (SMA)
05:31PM 44.7717 -93.8272 73° East 364 419 11,000  Level FAA TRACON SMA TRACON (SMA)
05:31PM 44.7808 -93.7847 73° East 367 422 11,000  Level FAA TRACON SMA TRACON (SMA)
05:31PM 44.7889 -93.7431 75° East 364 419 11,000  Level FAA TRACON SMA TRACON (SMA)
05:32PM 44.7994 -93.6903 74° East 362 417 11,000  Level FAA TRACON SMA TRACON (SMA)
05:32PM 44.8083 -93.6492 73° East 360 414 11,000  Level FAA TRACON SMA TRACON (SMA)
05:32PM 44.8172 -93.6072 73° East 361 415 11,000  Level FAA TRACON SMA TRACON (SMA)
05:33PM 44.8272 -93.5553 75° East 359 413 11,000  Level FAA TRACON SMA TRACON (SMA)
05:33PM 44.8364 -93.5139 73° East 360 414 11,000 -300 Level FAA TRACON SMA TRACON (SMA)
05:33PM 44.8447 -93.4736 74° East 352 405 10,800 -600 Descending FAA TRACON SMA TRACON (SMA)
05:34PM 44.8550 -93.4269 73° East 328 377 10,600 -600 Descending FAA TRACON SMA TRACON (SMA)
05:34PM 44.8572 -93.3906 85° East 315 362 10,400 -480 Descending FAA TRACON SMA TRACON (SMA)
05:34PM 44.8469 -93.3567 113° Southeast 313 360 10,300 -1,260 Descending FAA TRACON SMA TRACON (SMA)
05:35PM 44.8269 -93.3186 127° Southeast 312 359 9,600 -1,980 Descending FAA TRACON SMA TRACON (SMA)
05:35PM 44.8111 -93.2881 126° Southeast 313 360 9,000 -1,680 Descending FAA TRACON SMA TRACON (SMA)
05:35PM 44.7964 -93.2572 124° Southeast 310 357 8,500 -1,260 Descending FAA TRACON SMA TRACON (SMA)
05:36PM 44.7786 -93.2222 126° Southeast 291 335 8,200 -780 Descending FAA TRACON SMA TRACON (SMA)
05:36PM 44.7644 -93.1958 127° Southeast 277 319 8,000 -900 Descending FAA TRACON SMA TRACON (SMA)
05:36PM 44.7508 -93.1717 128° Southeast 259 298 7,600 -1,500 Descending FAA TRACON SMA TRACON (SMA)
05:37PM 44.7350 -93.1425 127° Southeast 246 283 7,000 -1,800 Descending FAA TRACON SMA TRACON (SMA)
05:37PM 44.7231 -93.1194 126° Southeast 238 274 6,400 -2,100 Descending FAA TRACON SMA TRACON (SMA)
05:37PM 44.7111 -93.0881 118° Southeast 237 273 5,600 -2,100 Descending FAA TRACON SMA TRACON (SMA)
05:38PM 44.7022 -93.0628 116° Southeast 235 270 5,000 -900 Descending FAA TRACON SMA TRACON (SMA)
05:38PM 44.6964 -93.0361 107° East 235 270 5,000  Level FAA TRACON SMA TRACON (SMA)
05:38PM 44.6931 -93.0006 98° East 236 272 5,000 -180 Level FAA TRACON SMA TRACON (SMA)
05:39PM 44.6906 -92.9683 96° East 223 257 4,900 -180 Descending FAA TRACON SMA TRACON (SMA)
05:39PM 44.6956 -92.9519 67° East 217 250 4,900 120 Level FAA TRACON SMA TRACON (SMA)
05:39PM 44.7075 -92.9358 44° Northeast 203 234 5,000  Climbing FAA TRACON SMA TRACON (SMA)
05:40PM 44.7239 -92.9192 36° Northeast 192 221 4,900  Descending FAA TRACON SMA TRACON (SMA)
05:40PM 44.7383 -92.9214 354° North 191 220 5,000 120 Climbing FAA TRACON SMA TRACON (SMA)
05:40PM 44.7497 -92.9331 324° Northwest 173 199 5,000 -180 Level FAA TRACON SMA TRACON (SMA)
05:41PM 44.7614 -92.9486 317° Northwest 155 178 4,900 -180 Descending FAA TRACON SMA TRACON (SMA)
05:41PM 44.7692 -92.9628 308° West 150 173 4,900 -180 Level FAA TRACON SMA TRACON (SMA)
05:41PM 44.7767 -92.9778 305° West 151 174 4,800 -780 Descending FAA TRACON SMA TRACON (SMA)
05:42PM 44.7853 -92.9975 302° West 153 176 4,400 -1,080 Descending FAA TRACON SMA TRACON (SMA)
05:42PM 44.7919 -93.0125 302° West 150 173 4,100 -960 Descending FAA TRACON SMA TRACON (SMA)
05:42PM 44.7986 -93.0278 302° West 149 171 3,800 -960 Descending FAA TRACON SMA TRACON (SMA)
05:43PM 44.8067 -93.0469 301° West 146 168 3,500 -900 Descending FAA TRACON SMA TRACON (SMA)
05:43PM 44.8131 -93.0614 302° West 143 165 3,200 -780 Descending FAA TRACON SMA TRACON (SMA)
05:43PM 44.8203 -93.0775 302° West 153 176 3,000 -660 Descending FAA TRACON SMA TRACON (SMA)